KSNA/SNA METAR and TAF weather

Enter ICAO airport designator
Station Type Date Time Source
KSNA METAR 2021/10/20 05:53 UTC NOAA

KSNA 200553Z 00000KT 10SM CLR 16/11 A3007 RMK AO2 SLP181 LAST T01610106 10200 20161 51015


Station Type Date Time Source
KSNA Decoded METAR 2021/10/20 05:53 UTC NOAA

SANTA ANA WAYNE ORANGE CTY, CA, United States (KSNA) 33-41N 117-52W 15M
Oct 20, 2021 - 01:53 AM EDT / 2021.10.20 0553 UTC
Wind: Calm:0
Visibility: 10 mile(s):0
Sky conditions: clear
Temperature: 61.0 F (16.1 C)
Dew Point: 51.1 F (10.6 C)
Relative Humidity: 69%
Pressure (altimeter): 30.07 in. Hg (1018 hPa)
Pressure tendency: 0.04 inches (1.5 hPa) higher than three hours ago
ob: KSNA 200553Z 00000KT 10SM CLR 16/11 A3007 RMK AO2 SLP181 LAST T01610106 10200 20161 51015
cycle: 6

Station Type Date Time Source
KSNA TAF 2021/10/20 06:22 UTC NOAA

TAF KSNA 200520Z 2006/2106 VRB04KT P6SM SKC
FM201900 23007KT P6SM SCT250
FM210200 VRB04KT P6SM SCT250

Example: see airport list